Terminal Aerodrome Forecast
Issued by NWS Melbourne, FL

Home | Current Version | Previous Version | Text Only | Print | Product List | Glossary On
Versions: 1 2 3 4 5 6 7 8 9 10 11 12 13
000
FTUS42 KMLB 291700
TAFVRB
TAF
KVRB 291721Z 2918/3018 09009KT P6SM VCTS SCT040CB BKN070
      TEMPO 2918/2920 TS BKN035CB BKN060
     FM300100 19004KT P6SM VCSH SCT060 BKN200
     FM300400 VRB02KT P6SM FEW040 SCT250=

USA.gov is the U.S. government's official web portal to all federal, state and local government web resources and services.